Time;durP1;ratioP1;P1;durP2;ratioP2;P2;SDS_P1;SDS_P2;PMS_P1;PMS_P2;Temp;Humidity;BMP_temperature;BMP_pressure;BME280_temperature;BME280_humidity;BME280_pressure;Samples;Min_cycle;Max_cycle;Signal;HPM_P1;HPM_P2
2023/12/18 00:00:52;;;;;;;;;;;9.70;99.90;;;;;;4937572;28;19936;-67
2023/12/18 00:03:22;;;;;;;;;;;9.70;99.90;;;;;;4939254;28;19945;-67
2023/12/18 00:05:53;;;;;;;;;;;9.70;99.90;;;;;;4937726;28;19926;-67
2023/12/18 00:08:18;;;;;;;;;;;9.60;99.90;;;;;;4960076;28;19918;-67
2023/12/18 00:10:46;;;;;;;;;;;9.60;99.90;;;;;;4942759;28;19918;-67
2023/12/18 00:13:13;;;;;;;;;;;9.60;99.90;;;;;;4941968;28;19996;-67
2023/12/18 00:15:39;;;;;;;;;;;9.60;99.90;;;;;;4942441;28;20118;-67
2023/12/18 00:18:07;;;;;;;;;;;9.60;99.90;;;;;;4947560;28;19918;-67
2023/12/18 00:20:33;;;;;;;;;;;9.50;99.90;;;;;;4942606;28;19922;-67
2023/12/18 00:22:58;;;;;;;;;;;9.40;99.90;;;;;;4941110;28;19933;-67
2023/12/18 00:25:24;;;;;;;;;;;9.40;99.90;;;;;;4940546;28;20827;-67
2023/12/18 00:27:50;;;;;;;;;;;9.40;99.90;;;;;;4941100;28;19926;-67
2023/12/18 00:30:15;;;;;;;;;;;9.30;99.90;;;;;;4943142;28;19922;-67
2023/12/18 00:32:41;;;;;;;;;;;9.20;99.90;;;;;;4940470;28;20292;-67
2023/12/18 00:35:09;;;;;;;;;;;9.20;99.90;;;;;;4944605;28;20369;-67
2023/12/18 00:37:34;;;;;;;;;;;9.20;99.90;;;;;;4945084;28;20128;-67
2023/12/18 00:40:02;;;;;;;;;;;9.20;99.90;;;;;;4942034;28;19922;-67
2023/12/18 00:42:28;;;;;;;;;;;9.20;99.90;;;;;;4940614;28;19922;-67
2023/12/18 00:44:53;;;;;;;;;;;9.10;99.90;;;;;;4943291;28;19996;-67
2023/12/18 00:47:19;;;;;;;;;;;9.10;99.90;;;;;;4955112;23;20485;-66
2023/12/18 00:49:44;;;;;;;;;;;9.00;99.90;;;;;;4969328;28;19925;-66
2023/12/18 00:52:10;;;;;;;;;;;9.00;99.90;;;;;;4985251;28;19918;-67
2023/12/18 00:54:35;;;;;;;;;;;9.10;99.90;;;;;;4979653;28;20005;-67
2023/12/18 00:57:01;;;;;;;;;;;9.00;99.90;;;;;;4960875;28;20611;-67
2023/12/18 00:59:26;;;;;;;;;;;9.00;99.90;;;;;;4959860;28;19922;-67
2023/12/18 01:01:52;;;;;;;;;;;8.90;99.90;;;;;;4963059;28;19914;-67
2023/12/18 01:04:17;;;;;;;;;;;8.90;99.90;;;;;;4962057;28;19925;-67
2023/12/18 01:06:43;;;;;;;;;;;9.00;99.90;;;;;;4960539;28;19929;-67
2023/12/18 01:09:12;;;;;;;;;;;8.90;99.90;;;;;;4960757;28;20267;-67
2023/12/18 01:11:38;;;;;;;;;;;9.00;99.90;;;;;;4962852;28;21304;-67
2023/12/18 01:14:03;;;;;;;;;;;8.90;99.90;;;;;;4959861;28;19991;-67
2023/12/18 01:16:34;;;;;;;;;;;8.90;99.90;;;;;;4964674;28;19973;-67
2023/12/18 01:19:02;;;;;;;;;;;8.90;99.90;;;;;;4963162;28;19928;-67
2023/12/18 01:21:30;;;;;;;;;;;9.00;99.90;;;;;;4961639;28;19922;-67
2023/12/18 01:23:59;;;;;;;;;;;8.90;99.90;;;;;;4974564;28;19925;-67
2023/12/18 01:26:24;;;;;;;;;;;8.90;99.90;;;;;;4963739;28;19922;-67
2023/12/18 01:28:50;;;;;;;;;;;8.90;99.90;;;;;;4962022;28;19928;-67
2023/12/18 01:31:22;;;;;;;;;;;8.90;99.90;;;;;;4962059;28;20283;-67
2023/12/18 01:33:48;;;;;;;;;;;8.90;99.90;;;;;;4960143;28;19980;-67
2023/12/18 01:36:16;;;;;;;;;;;8.80;99.90;;;;;;4962333;28;20620;-67
2023/12/18 01:38:41;;;;;;;;;;;9.00;99.90;;;;;;4959728;28;20328;-67
2023/12/18 01:41:09;;;;;;;;;;;8.80;99.90;;;;;;4961182;28;19929;-67
2023/12/18 01:43:37;;;;;;;;;;;8.80;99.90;;;;;;4960079;28;19922;-67
2023/12/18 01:46:07;;;;;;;;;;;8.80;99.90;;;;;;4962047;28;20004;-67
2023/12/18 01:48:33;;;;;;;;;;;8.80;99.90;;;;;;4959545;28;19921;-67
2023/12/18 01:50:59;;;;;;;;;;;8.80;99.90;;;;;;4960920;28;20001;-67
2023/12/18 01:53:28;;;;;;;;;;;8.80;99.90;;;;;;4958348;28;19922;-67
2023/12/18 01:55:57;;;;;;;;;;;8.70;99.90;;;;;;4959346;28;19998;-67
2023/12/18 01:58:22;;;;;;;;;;;8.70;99.90;;;;;;4959367;28;20486;-67
2023/12/18 02:00:48;;;;;;;;;;;8.70;99.90;;;;;;4959751;28;19918;-67
2023/12/18 02:03:16;;;;;;;;;;;8.80;99.90;;;;;;4958629;28;19928;-67
2023/12/18 02:05:42;;;;;;;;;;;8.80;99.90;;;;;;4959014;28;20387;-67
2023/12/18 02:08:07;;;;;;;;;;;8.70;99.90;;;;;;4959824;28;19917;-67
2023/12/18 02:10:33;;;;;;;;;;;8.70;99.90;;;;;;4959248;28;21724;-67
2023/12/18 02:12:59;;;;;;;;;;;8.60;99.90;;;;;;4960010;28;19976;-67
2023/12/18 02:15:27;;;;;;;;;;;8.60;99.90;;;;;;4959274;28;19925;-67
2023/12/18 02:17:52;;;;;;;;;;;8.60;99.90;;;;;;4957447;28;19984;-67
2023/12/18 02:20:20;;;;;;;;;;;8.60;99.90;;;;;;4958142;28;19925;-67
2023/12/18 02:22:46;;;;;;;;;;;8.50;99.90;;;;;;4958319;28;19922;-67
2023/12/18 02:25:14;;;;;;;;;;;8.50;99.90;;;;;;4958875;28;19976;-66
2023/12/18 02:27:40;;;;;;;;;;;8.50;99.90;;;;;;4958939;28;19922;-66
2023/12/18 02:30:07;;;;;;;;;;;8.50;99.90;;;;;;4959240;28;21034;-66
2023/12/18 02:32:35;;;;;;;;;;;8.40;99.90;;;;;;4956591;28;19922;-66
2023/12/18 02:35:00;;;;;;;;;;;8.40;99.90;;;;;;4958763;28;19922;-67
2023/12/18 02:37:29;;;;;;;;;;;8.40;99.90;;;;;;4958636;28;19949;-67
2023/12/18 02:39:54;;;;;;;;;;;8.40;99.90;;;;;;4957717;28;20292;-67
2023/12/18 02:42:20;;;;;;;;;;;8.30;99.90;;;;;;4959594;28;20463;-66
2023/12/18 02:44:45;;;;;;;;;;;8.30;99.90;;;;;;4956601;28;19932;-67
2023/12/18 02:47:13;;;;;;;;;;;8.30;99.90;;;;;;4959385;28;20020;-67
2023/12/18 02:49:41;;;;;;;;;;;8.30;99.90;;;;;;4958914;28;19921;-67
2023/12/18 02:52:06;;;;;;;;;;;8.30;99.90;;;;;;4959119;28;19926;-66
2023/12/18 02:54:34;;;;;;;;;;;8.30;99.90;;;;;;4956451;28;20027;-67
2023/12/18 02:56:59;;;;;;;;;;;8.20;99.90;;;;;;4959328;28;19968;-67
2023/12/18 02:59:27;;;;;;;;;;;8.20;99.90;;;;;;4957473;28;19914;-67
2023/12/18 03:01:53;;;;;;;;;;;8.20;99.90;;;;;;4952454;28;19922;-66
2023/12/18 03:04:19;;;;;;;;;;;8.20;99.90;;;;;;4959300;28;19973;-66
2023/12/18 03:06:50;;;;;;;;;;;8.20;99.90;;;;;;4967230;28;20392;-66
2023/12/18 03:09:15;;;;;;;;;;;8.10;99.90;;;;;;4958734;28;20132;-67
2023/12/18 03:11:43;;;;;;;;;;;8.10;99.90;;;;;;4963211;28;20002;-66
2023/12/18 03:14:10;;;;;;;;;;;8.00;99.90;;;;;;4962349;28;20256;-66
2023/12/18 03:16:39;;;;;;;;;;;8.00;99.90;;;;;;4960147;28;19921;-66
2023/12/18 03:19:04;;;;;;;;;;;8.00;99.90;;;;;;4958053;28;20671;-66
2023/12/18 03:21:30;;;;;;;;;;;8.00;99.90;;;;;;4956460;28;19917;-66
2023/12/18 03:23:56;;;;;;;;;;;8.00;99.90;;;;;;4957548;28;19926;-66
2023/12/18 03:26:21;;;;;;;;;;;8.00;99.90;;;;;;4958104;28;19929;-68
2023/12/18 03:28:49;;;;;;;;;;;8.00;99.90;;;;;;4974458;28;19929;-69
2023/12/18 03:31:17;;;;;;;;;;;8.00;99.90;;;;;;4974807;28;20250;-68
2023/12/18 03:33:42;;;;;;;;;;;8.00;99.90;;;;;;4957850;28;20106;-68
2023/12/18 03:36:08;;;;;;;;;;;8.00;99.90;;;;;;4958894;28;20387;-68
2023/12/18 03:38:36;;;;;;;;;;;8.00;99.90;;;;;;4959052;28;19928;-68
2023/12/18 03:41:04;;;;;;;;;;;8.00;99.90;;;;;;4962276;28;20183;-68
2023/12/18 03:43:29;;;;;;;;;;;8.00;99.90;;;;;;4962819;28;19921;-68
2023/12/18 03:45:55;;;;;;;;;;;8.00;99.90;;;;;;4963684;28;20392;-68
2023/12/18 03:48:22;;;;;;;;;;;8.00;99.90;;;;;;4962657;28;19929;-68
2023/12/18 03:50:48;;;;;;;;;;;8.00;99.90;;;;;;4964423;28;19922;-69
2023/12/18 03:53:16;;;;;;;;;;;7.90;99.90;;;;;;4963287;28;19921;-68
2023/12/18 03:55:41;;;;;;;;;;;7.80;99.90;;;;;;4964992;28;19918;-68
2023/12/18 03:58:06;;;;;;;;;;;7.90;99.90;;;;;;4961801;28;19921;-68
2023/12/18 04:00:32;;;;;;;;;;;7.90;99.90;;;;;;4963627;28;19918;-69
2023/12/18 04:02:57;;;;;;;;;;;7.90;99.90;;;;;;4974545;28;20343;-68
2023/12/18 04:05:26;;;;;;;;;;;7.90;99.90;;;;;;4965525;28;20368;-68
2023/12/18 04:07:51;;;;;;;;;;;7.90;99.90;;;;;;4960947;28;19922;-68
2023/12/18 04:10:16;;;;;;;;;;;8.00;99.90;;;;;;4979591;28;20498;-68
2023/12/18 04:12:42;;;;;;;;;;;8.00;99.90;;;;;;4961857;28;19929;-68
2023/12/18 04:15:09;;;;;;;;;;;7.90;99.90;;;;;;4964773;28;20339;-68
2023/12/18 04:17:34;;;;;;;;;;;8.00;99.90;;;;;;4963817;28;20368;-68
2023/12/18 04:20:00;;;;;;;;;;;8.00;99.90;;;;;;4965154;28;19917;-68
2023/12/18 04:22:25;;;;;;;;;;;8.00;99.90;;;;;;4966188;28;20032;-68
2023/12/18 04:24:51;;;;;;;;;;;8.00;99.90;;;;;;4962278;28;19932;-68
2023/12/18 04:27:16;;;;;;;;;;;8.00;99.90;;;;;;4963421;28;19921;-68
2023/12/18 04:29:42;;;;;;;;;;;8.00;99.90;;;;;;4960782;28;19949;-68
2023/12/18 04:32:07;;;;;;;;;;;7.90;99.90;;;;;;4963449;28;19927;-68
2023/12/18 04:34:35;;;;;;;;;;;8.00;99.90;;;;;;4966759;28;19996;-68
2023/12/18 04:37:00;;;;;;;;;;;7.90;99.90;;;;;;4964280;28;19941;-68
2023/12/18 04:39:26;;;;;;;;;;;7.90;99.90;;;;;;4963662;28;19929;-68
2023/12/18 04:41:51;;;;;;;;;;;7.90;99.90;;;;;;4962345;28;20852;-68
2023/12/18 04:44:17;;;;;;;;;;;7.90;99.90;;;;;;4961207;28;20016;-68
2023/12/18 04:46:46;;;;;;;;;;;8.00;99.90;;;;;;4962175;28;19926;-68
2023/12/18 04:49:13;;;;;;;;;;;8.00;99.90;;;;;;4964233;28;20323;-68
2023/12/18 04:51:40;;;;;;;;;;;7.90;99.90;;;;;;4963131;28;20372;-68
2023/12/18 04:54:09;;;;;;;;;;;7.90;99.90;;;;;;4960992;28;20177;-68
2023/12/18 04:56:34;;;;;;;;;;;7.90;99.90;;;;;;4963175;28;19922;-68
2023/12/18 04:59:00;;;;;;;;;;;7.90;99.90;;;;;;4962530;28;20403;-68
2023/12/18 05:01:27;;;;;;;;;;;7.90;99.90;;;;;;4963138;28;19928;-68
2023/12/18 05:03:53;;;;;;;;;;;7.90;99.90;;;;;;4962360;28;20009;-68
2023/12/18 05:06:22;;;;;;;;;;;7.80;99.90;;;;;;4962371;28;20498;-68
2023/12/18 05:08:50;;;;;;;;;;;7.70;99.90;;;;;;4967126;28;19919;-68
2023/12/18 05:11:17;;;;;;;;;;;7.80;99.90;;;;;;4963652;28;19941;-68
2023/12/18 05:13:42;;;;;;;;;;;7.80;99.90;;;;;;4962393;28;19918;-68
2023/12/18 05:16:08;;;;;;;;;;;7.80;99.90;;;;;;4962983;28;19954;-68
2023/12/18 05:18:33;;;;;;;;;;;7.80;99.90;;;;;;4963472;28;20306;-68
2023/12/18 05:20:59;;;;;;;;;;;7.80;99.90;;;;;;4963384;28;20411;-68
2023/12/18 05:23:25;;;;;;;;;;;7.80;99.90;;;;;;4961174;28;20644;-68
2023/12/18 05:25:50;;;;;;;;;;;7.70;99.90;;;;;;4961933;28;19926;-68
2023/12/18 05:28:16;;;;;;;;;;;7.80;99.90;;;;;;4960864;28;19964;-68
2023/12/18 05:30:41;;;;;;;;;;;7.70;99.90;;;;;;4961689;28;19922;-68
2023/12/18 05:33:07;;;;;;;;;;;7.70;99.90;;;;;;4960129;28;20161;-68
2023/12/18 05:35:32;;;;;;;;;;;7.80;99.90;;;;;;4962167;28;20273;-68
2023/12/18 05:37:58;;;;;;;;;;;7.80;99.90;;;;;;4960134;28;19918;-68
2023/12/18 05:40:23;;;;;;;;;;;7.80;99.90;;;;;;4957860;28;19917;-68
2023/12/18 05:42:49;;;;;;;;;;;7.80;99.90;;;;;;4960887;28;20225;-68
2023/12/18 05:45:14;;;;;;;;;;;7.80;99.90;;;;;;4961598;28;21558;-68
2023/12/18 05:47:40;;;;;;;;;;;7.90;99.90;;;;;;4961254;28;19926;-68
2023/12/18 05:50:08;;;;;;;;;;;7.90;99.90;;;;;;4963724;28;20489;-68
2023/12/18 05:52:33;;;;;;;;;;;7.90;99.90;;;;;;4960038;28;19922;-68
2023/12/18 05:54:59;;;;;;;;;;;7.90;99.90;;;;;;4960352;28;19922;-68
2023/12/18 05:57:24;;;;;;;;;;;7.90;99.90;;;;;;4961531;28;20033;-68
2023/12/18 05:59:50;;;;;;;;;;;7.90;99.90;;;;;;4959386;28;19924;-68
2023/12/18 06:02:20;;;;;;;;;;;7.90;99.90;;;;;;4962384;28;20388;-68
2023/12/18 06:04:47;;;;;;;;;;;7.90;99.90;;;;;;4958157;28;22436;-68
2023/12/18 06:07:13;;;;;;;;;;;8.00;99.90;;;;;;4960628;28;20036;-68
2023/12/18 06:09:39;;;;;;;;;;;7.90;99.90;;;;;;4959251;28;19925;-68
2023/12/18 06:12:05;;;;;;;;;;;7.90;99.90;;;;;;4960435;28;22971;-68
2023/12/18 06:14:30;;;;;;;;;;;8.00;99.90;;;;;;4970856;28;19960;-68
2023/12/18 06:17:01;;;;;;;;;;;8.00;99.90;;;;;;4960826;28;19964;-68
2023/12/18 06:19:28;;;;;;;;;;;8.00;99.90;;;;;;4959989;28;19921;-68
2023/12/18 06:21:56;;;;;;;;;;;8.00;99.90;;;;;;4962144;28;20160;-68
2023/12/18 06:24:22;;;;;;;;;;;8.10;99.90;;;;;;4958714;28;19926;-68
2023/12/18 06:26:47;;;;;;;;;;;8.10;99.90;;;;;;4960505;28;20161;-68
2023/12/18 06:29:13;;;;;;;;;;;8.10;99.90;;;;;;4959076;28;20468;-68
2023/12/18 06:31:38;;;;;;;;;;;8.00;99.90;;;;;;4959211;28;19971;-68
2023/12/18 06:34:04;;;;;;;;;;;8.00;99.90;;;;;;4959469;28;19921;-68
2023/12/18 06:36:29;;;;;;;;;;;8.10;99.90;;;;;;4959645;28;19932;-68
2023/12/18 06:38:55;;;;;;;;;;;8.10;99.90;;;;;;4960014;28;20396;-68
2023/12/18 06:41:21;;;;;;;;;;;8.10;99.90;;;;;;4962137;28;19962;-68
2023/12/18 06:43:47;;;;;;;;;;;8.10;99.90;;;;;;4958383;28;20000;-68
2023/12/18 06:46:14;;;;;;;;;;;8.00;99.90;;;;;;4971377;28;19987;-68
2023/12/18 06:48:41;;;;;;;;;;;8.10;99.90;;;;;;5006187;23;20028;-68
2023/12/18 06:51:08;;;;;;;;;;;8.10;99.90;;;;;;4986105;28;19913;-69
2023/12/18 06:53:34;;;;;;;;;;;8.00;99.90;;;;;;4976389;28;20112;-68
2023/12/18 06:56:01;;;;;;;;;;;8.10;99.90;;;;;;4969247;28;21971;-68
2023/12/18 06:58:27;;;;;;;;;;;8.10;99.90;;;;;;4954504;28;19925;-69
2023/12/18 07:00:52;;;;;;;;;;;8.10;99.90;;;;;;4955564;28;19917;-68
2023/12/18 07:03:18;;;;;;;;;;;8.10;99.90;;;;;;4957048;28;20424;-68
2023/12/18 07:05:44;;;;;;;;;;;8.00;99.90;;;;;;4953805;28;20016;-68
2023/12/18 07:08:10;;;;;;;;;;;8.00;99.90;;;;;;4957094;28;19995;-68
2023/12/18 07:10:35;;;;;;;;;;;8.00;99.90;;;;;;4958740;28;19933;-68
2023/12/18 07:13:01;;;;;;;;;;;8.00;99.90;;;;;;4954440;28;19945;-68
2023/12/18 07:15:27;;;;;;;;;;;8.10;99.90;;;;;;4953149;28;20022;-69
2023/12/18 07:17:52;;;;;;;;;;;8.00;99.90;;;;;;4954930;28;20276;-68
2023/12/18 07:20:18;;;;;;;;;;;8.00;99.90;;;;;;4953842;28;19941;-68
2023/12/18 07:22:43;;;;;;;;;;;8.00;99.90;;;;;;4952868;28;20020;-68
2023/12/18 07:25:11;;;;;;;;;;;8.10;99.90;;;;;;4954297;28;19986;-68
2023/12/18 07:27:37;;;;;;;;;;;8.20;99.90;;;;;;4953927;28;19925;-68
2023/12/18 07:30:05;;;;;;;;;;;8.20;99.90;;;;;;4954157;28;20429;-68
2023/12/18 07:32:31;;;;;;;;;;;8.10;99.90;;;;;;4954456;28;19914;-68
2023/12/18 07:34:59;;;;;;;;;;;8.10;99.90;;;;;;4955296;28;20039;-68
2023/12/18 07:37:28;;;;;;;;;;;8.10;99.90;;;;;;4955025;28;19933;-68
2023/12/18 07:39:57;;;;;;;;;;;8.10;99.90;;;;;;4956681;28;19961;-68
2023/12/18 07:42:27;;;;;;;;;;;8.10;99.90;;;;;;4951995;28;20511;-68
2023/12/18 07:44:55;;;;;;;;;;;8.10;99.90;;;;;;4952865;28;19926;-68
2023/12/18 07:47:23;;;;;;;;;;;8.10;99.90;;;;;;4951844;28;19968;-68
2023/12/18 07:49:51;;;;;;;;;;;8.00;99.90;;;;;;4953664;28;19922;-68
2023/12/18 07:52:17;;;;;;;;;;;8.00;99.90;;;;;;4951244;28;19917;-68
2023/12/18 07:54:42;;;;;;;;;;;8.00;99.90;;;;;;4953793;28;20028;-68
2023/12/18 07:57:08;;;;;;;;;;;8.00;99.90;;;;;;4951058;28;20010;-68
2023/12/18 07:59:39;;;;;;;;;;;8.00;99.90;;;;;;4954201;28;19921;-68
2023/12/18 08:02:07;;;;;;;;;;;8.00;99.90;;;;;;4952659;28;19971;-68
2023/12/18 08:04:33;;;;;;;;;;;8.00;99.90;;;;;;4957269;28;19918;-68
2023/12/18 08:06:58;;;;;;;;;;;8.10;99.90;;;;;;4951050;28;20576;-68
2023/12/18 08:09:26;;;;;;;;;;;8.10;99.90;;;;;;4955652;28;20447;-68
2023/12/18 08:11:52;;;;;;;;;;;8.10;99.90;;;;;;4951215;28;20027;-68
2023/12/18 08:14:17;;;;;;;;;;;8.10;99.90;;;;;;4953381;28;20312;-68
2023/12/18 08:16:43;;;;;;;;;;;8.10;99.90;;;;;;4950637;28;20013;-68
2023/12/18 08:19:08;;;;;;;;;;;8.00;99.90;;;;;;4952436;28;20077;-68
2023/12/18 08:21:34;;;;;;;;;;;8.10;99.90;;;;;;4955791;28;19922;-68
2023/12/18 08:24:00;;;;;;;;;;;8.20;99.90;;;;;;4953215;28;19922;-68
2023/12/18 08:26:26;;;;;;;;;;;8.10;99.90;;;;;;4956407;28;20428;-68
2023/12/18 08:28:51;;;;;;;;;;;8.10;99.90;;;;;;4955393;28;19922;-68
2023/12/18 08:31:17;;;;;;;;;;;8.20;99.90;;;;;;4958709;28;20288;-68
2023/12/18 08:33:42;;;;;;;;;;;8.10;99.90;;;;;;4958346;28;19980;-68
2023/12/18 08:36:10;;;;;;;;;;;8.10;99.90;;;;;;4958699;28;19976;-68
2023/12/18 08:38:36;;;;;;;;;;;8.10;99.90;;;;;;4954618;28;19929;-68
2023/12/18 08:41:01;;;;;;;;;;;8.10;99.90;;;;;;4957731;28;19918;-68
2023/12/18 08:43:27;;;;;;;;;;;8.10;99.90;;;;;;4956269;28;19922;-68
2023/12/18 08:45:52;;;;;;;;;;;8.10;99.90;;;;;;4956559;28;19984;-68
2023/12/18 08:48:18;;;;;;;;;;;8.20;99.90;;;;;;4955262;28;20498;-68
2023/12/18 08:50:43;;;;;;;;;;;8.20;99.90;;;;;;4957093;28;20009;-68
2023/12/18 08:53:09;;;;;;;;;;;8.10;99.90;;;;;;4954195;28;20526;-68
2023/12/18 08:55:38;;;;;;;;;;;8.10;99.90;;;;;;4956861;28;20401;-68
2023/12/18 08:58:07;;;;;;;;;;;8.20;99.90;;;;;;4955586;28;19921;-68
2023/12/18 09:00:35;;;;;;;;;;;8.10;99.90;;;;;;4957079;28;20396;-68
2023/12/18 09:03:01;;;;;;;;;;;8.10;99.90;;;;;;4957291;28;19928;-68
2023/12/18 09:05:27;;;;;;;;;;;8.10;99.90;;;;;;4957445;28;19984;-68
2023/12/18 09:07:52;;;;;;;;;;;8.10;99.90;;;;;;4955794;28;20302;-68
2023/12/18 09:10:22;;;;;;;;;;;8.10;99.90;;;;;;4956555;28;19922;-68
2023/12/18 09:12:49;;;;;;;;;;;8.10;99.90;;;;;;4955880;28;19923;-68
2023/12/18 09:15:17;;;;;;;;;;;8.10;99.90;;;;;;4955686;28;20621;-68
2023/12/18 09:17:43;;;;;;;;;;;8.10;99.90;;;;;;4954740;28;19926;-68
2023/12/18 09:20:08;;;;;;;;;;;8.10;99.90;;;;;;4955975;28;20468;-68
2023/12/18 09:22:35;;;;;;;;;;;8.10;99.90;;;;;;4953215;28;20016;-68
2023/12/18 09:25:00;;;;;;;;;;;8.10;99.90;;;;;;4957105;28;19925;-68
2023/12/18 09:27:26;;;;;;;;;;;8.10;99.90;;;;;;4954091;28;20406;-68
2023/12/18 09:29:51;;;;;;;;;;;8.10;99.90;;;;;;4957525;28;20347;-68
2023/12/18 09:32:19;;;;;;;;;;;8.20;99.90;;;;;;4956087;28;19922;-68
2023/12/18 09:34:44;;;;;;;;;;;8.10;99.90;;;;;;4958851;28;20267;-68
2023/12/18 09:37:10;;;;;;;;;;;8.10;99.90;;;;;;4969314;28;19922;-68
2023/12/18 09:39:35;;;;;;;;;;;8.20;99.90;;;;;;4956619;28;19957;-68
2023/12/18 09:42:05;;;;;;;;;;;8.20;99.90;;;;;;4954894;28;20510;-68
2023/12/18 09:44:31;;;;;;;;;;;8.20;99.90;;;;;;4957954;28;19929;-68
2023/12/18 09:47:01;;;;;;;;;;;8.20;99.90;;;;;;4956694;28;19936;-68
2023/12/18 09:49:27;;;;;;;;;;;8.10;99.90;;;;;;4956949;28;19921;-68
2023/12/18 09:51:55;;;;;;;;;;;8.20;99.90;;;;;;4955723;28;19921;-69
2023/12/18 09:54:21;;;;;;;;;;;8.20;99.90;;;;;;4955431;28;19921;-68
2023/12/18 09:56:48;;;;;;;;;;;8.20;99.90;;;;;;4953599;28;19922;-68
2023/12/18 09:59:16;;;;;;;;;;;8.30;99.90;;;;;;4953449;28;19921;-68
2023/12/18 10:01:42;;;;;;;;;;;8.30;99.90;;;;;;4971242;28;19929;-68
2023/12/18 10:04:08;;;;;;;;;;;8.40;99.90;;;;;;4953534;28;19969;-68
2023/12/18 10:06:33;;;;;;;;;;;8.30;99.90;;;;;;4958756;28;20040;-68
2023/12/18 10:09:03;;;;;;;;;;;8.30;99.90;;;;;;4956845;28;20340;-68
2023/12/18 10:11:28;;;;;;;;;;;8.40;99.90;;;;;;4959185;28;20380;-68
2023/12/18 10:13:55;;;;;;;;;;;8.40;99.90;;;;;;4960821;28;19918;-68
2023/12/18 10:16:23;;;;;;;;;;;8.40;99.90;;;;;;4962157;28;21185;-68
2023/12/18 10:18:51;;;;;;;;;;;8.30;99.90;;;;;;4959910;28;20397;-68
2023/12/18 10:21:21;;;;;;;;;;;8.40;99.90;;;;;;4959100;28;20012;-68
2023/12/18 10:23:46;;;;;;;;;;;8.40;99.90;;;;;;4955249;28;20030;-68
2023/12/18 10:26:12;;;;;;;;;;;8.50;99.90;;;;;;4972376;28;20400;-67
2023/12/18 10:28:40;;;;;;;;;;;8.40;99.90;;;;;;4955016;28;19922;-68
2023/12/18 10:31:09;;;;;;;;;;;8.50;99.90;;;;;;4966642;28;19921;-68
2023/12/18 10:33:37;;;;;;;;;;;8.50;99.90;;;;;;4952987;28;20020;-68
2023/12/18 10:36:04;;;;;;;;;;;8.50;99.90;;;;;;4956559;28;19930;-68
2023/12/18 10:38:32;;;;;;;;;;;8.50;99.90;;;;;;4953377;28;20256;-68
2023/12/18 10:40:59;;;;;;;;;;;8.50;99.90;;;;;;4957712;28;20020;-68
2023/12/18 10:43:25;;;;;;;;;;;8.50;99.90;;;;;;4953370;28;19922;-68
2023/12/18 10:45:54;;;;;;;;;;;8.50;99.90;;;;;;4972472;28;19957;-68
2023/12/18 10:48:22;;;;;;;;;;;8.50;99.90;;;;;;4957410;28;20218;-68
2023/12/18 10:50:50;;;;;;;;;;;8.40;99.90;;;;;;4954682;28;20117;-68
2023/12/18 10:53:16;;;;;;;;;;;8.50;99.90;;;;;;4953165;28;20073;-68
2023/12/18 10:55:42;;;;;;;;;;;8.50;99.90;;;;;;4953061;28;19925;-68
2023/12/18 10:58:12;;;;;;;;;;;8.40;99.90;;;;;;4952229;28;19921;-68
2023/12/18 11:00:39;;;;;;;;;;;8.50;99.90;;;;;;4954604;28;19921;-68
2023/12/18 11:03:06;;;;;;;;;;;8.50;99.90;;;;;;4952488;28;19953;-68
2023/12/18 11:05:33;;;;;;;;;;;8.40;99.90;;;;;;4952251;28;19969;-68
2023/12/18 11:07:58;;;;;;;;;;;8.50;99.90;;;;;;4953233;28;20068;-68
2023/12/18 11:10:24;;;;;;;;;;;8.50;99.90;;;;;;4954317;28;19921;-68
2023/12/18 11:12:51;;;;;;;;;;;8.50;99.90;;;;;;4951657;28;19922;-68
2023/12/18 11:15:49;;;;;;;;;;;8.60;99.90;;;;;;4956217;28;20318;-68
2023/12/18 11:18:20;;;;;;;;;;;8.50;99.90;;;;;;4932624;28;20097;-68
2023/12/18 11:20:45;;;;;;;;;;;8.50;99.90;;;;;;4954354;28;20121;-68
2023/12/18 11:23:11;;;;;;;;;;;8.50;99.90;;;;;;4951913;28;20004;-68
2023/12/18 11:25:38;;;;;;;;;;;8.50;99.90;;;;;;4954976;28;20109;-68
2023/12/18 11:28:04;;;;;;;;;;;8.60;99.90;;;;;;4952117;28;19922;-68
2023/12/18 11:30:33;;;;;;;;;;;8.60;99.90;;;;;;4954726;28;22565;-68
2023/12/18 11:33:03;;;;;;;;;;;8.60;99.90;;;;;;4953237;28;19922;-68
2023/12/18 11:35:32;;;;;;;;;;;8.50;99.90;;;;;;4956952;28;20431;-68
2023/12/18 11:38:05;;;;;;;;;;;8.60;99.90;;;;;;4956966;28;19921;-68
2023/12/18 11:40:31;;;;;;;;;;;8.50;99.90;;;;;;4956677;28;19921;-68
2023/12/18 11:42:59;;;;;;;;;;;8.60;99.90;;;;;;4952904;28;19928;-68
2023/12/18 11:45:28;;;;;;;;;;;8.60;99.90;;;;;;4953310;28;19921;-68
2023/12/18 11:47:58;;;;;;;;;;;8.50;99.90;;;;;;4952963;28;20012;-68
2023/12/18 11:50:26;;;;;;;;;;;8.60;99.90;;;;;;4956004;28;19921;-68
2023/12/18 11:52:57;;;;;;;;;;;8.60;99.90;;;;;;4955325;28;19925;-68
2023/12/18 11:55:42;;;;;;;;;;;8.70;99.90;;;;;;4954478;28;19933;-68
2023/12/18 11:58:08;;;;;;;;;;;8.70;99.90;;;;;;4955065;28;19918;-68
2023/12/18 12:00:33;;;;;;;;;;;8.70;99.90;;;;;;4953952;28;20036;-68
2023/12/18 12:03:04;;;;;;;;;;;8.70;99.90;;;;;;4957865;28;19918;-68
2023/12/18 12:05:32;;;;;;;;;;;8.70;99.90;;;;;;4959055;28;19926;-68
2023/12/18 12:07:59;;;;;;;;;;;8.60;99.90;;;;;;4957293;28;20124;-68
2023/12/18 12:10:24;;;;;;;;;;;8.70;99.90;;;;;;4956926;28;20428;-68
2023/12/18 12:12:53;;;;;;;;;;;8.60;99.90;;;;;;4955753;28;19968;-68
2023/12/18 12:15:22;;;;;;;;;;;8.60;99.90;;;;;;4956849;28;19922;-68
2023/12/18 12:17:48;;;;;;;;;;;8.50;99.90;;;;;;4957260;28;20058;-68
2023/12/18 12:20:17;;;;;;;;;;;8.60;99.90;;;;;;4961831;28;19922;-68
2023/12/18 12:22:48;;;;;;;;;;;8.50;99.90;;;;;;4958279;28;19928;-68
2023/12/18 12:25:13;;;;;;;;;;;8.60;99.90;;;;;;4963450;28;19957;-68
2023/12/18 12:27:41;;;;;;;;;;;8.50;99.90;;;;;;4960934;28;19922;-68
2023/12/18 12:30:08;;;;;;;;;;;8.60;99.90;;;;;;4963653;28;20760;-68
2023/12/18 12:32:35;;;;;;;;;;;8.60;99.90;;;;;;4960232;28;20304;-68
2023/12/18 12:35:00;;;;;;;;;;;8.60;99.90;;;;;;4957144;28;22099;-68
2023/12/18 12:37:26;;;;;;;;;;;8.70;99.90;;;;;;4955522;28;19926;-68
2023/12/18 12:40:02;;;;;;;;;;;8.70;99.90;;;;;;4958781;28;20021;-68
2023/12/18 12:42:29;;;;;;;;;;;8.70;99.90;;;;;;4957634;28;19922;-68
2023/12/18 12:44:54;;;;;;;;;;;8.70;99.90;;;;;;4956404;28;20347;-68
2023/12/18 12:47:20;;;;;;;;;;;8.70;99.90;;;;;;4965154;23;20479;-68
2023/12/18 12:49:46;;;;;;;;;;;8.70;99.90;;;;;;4963553;28;20488;-68
2023/12/18 12:52:18;;;;;;;;;;;8.70;99.90;;;;;;4956166;28;19925;-68
2023/12/18 12:54:44;;;;;;;;;;;8.60;99.90;;;;;;4936670;28;20373;-68
2023/12/18 12:57:13;;;;;;;;;;;8.70;99.90;;;;;;4938183;28;19962;-68
2023/12/18 12:59:51;;;;;;;;;;;8.70;99.90;;;;;;4937831;28;19933;-68
2023/12/18 13:02:19;;;;;;;;;;;8.60;99.90;;;;;;4938504;28;19996;-68
2023/12/18 13:04:46;;;;;;;;;;;8.60;99.90;;;;;;4938608;28;19925;-68
2023/12/18 13:07:12;;;;;;;;;;;8.50;99.90;;;;;;4941249;28;20407;-68
2023/12/18 13:09:39;;;;;;;;;;;8.50;99.90;;;;;;4939632;28;19922;-68
2023/12/18 13:12:05;;;;;;;;;;;8.50;99.90;;;;;;4939828;28;19922;-68
2023/12/18 13:14:33;;;;;;;;;;;8.50;99.90;;;;;;4936920;28;20629;-68
2023/12/18 13:16:58;;;;;;;;;;;8.50;99.90;;;;;;4938281;28;19921;-68
2023/12/18 13:19:24;;;;;;;;;;;8.50;99.90;;;;;;4940012;28;19922;-68
2023/12/18 13:21:49;;;;;;;;;;;8.50;99.90;;;;;;4939939;28;19926;-68
2023/12/18 13:24:16;;;;;;;;;;;8.50;99.90;;;;;;4955686;28;19924;-68
2023/12/18 13:26:44;;;;;;;;;;;8.40;99.90;;;;;;4943046;28;19944;-68
2023/12/18 13:29:09;;;;;;;;;;;8.50;99.90;;;;;;4942719;28;19958;-68
2023/12/18 13:31:35;;;;;;;;;;;8.50;99.90;;;;;;4941894;28;20060;-68
2023/12/18 13:34:04;;;;;;;;;;;8.50;99.90;;;;;;4937708;28;19944;-68
2023/12/18 13:36:32;;;;;;;;;;;8.40;99.90;;;;;;4937444;28;19933;-68
2023/12/18 13:39:00;;;;;;;;;;;8.50;99.90;;;;;;4937472;28;20037;-69
2023/12/18 13:41:32;;;;;;;;;;;8.50;99.90;;;;;;4938545;28;19922;-68
2023/12/18 13:43:58;;;;;;;;;;;8.50;99.90;;;;;;4937267;28;20060;-68
2023/12/18 13:46:24;;;;;;;;;;;8.40;99.90;;;;;;4938810;28;20366;-68
2023/12/18 13:48:49;;;;;;;;;;;8.40;99.90;;;;;;4937501;28;19929;-68
2023/12/18 13:51:17;;;;;;;;;;;8.50;99.90;;;;;;4937906;28;20684;-68
2023/12/18 13:53:46;;;;;;;;;;;8.50;99.90;;;;;;4939377;28;19965;-68
2023/12/18 13:56:11;;;;;;;;;;;8.50;99.90;;;;;;4939821;28;19930;-68
2023/12/18 13:58:37;;;;;;;;;;;8.50;99.90;;;;;;4936207;28;19922;-68
2023/12/18 14:01:03;;;;;;;;;;;8.50;99.90;;;;;;4952449;28;20385;-68
2023/12/18 14:03:29;;;;;;;;;;;8.40;99.90;;;;;;4937595;28;20029;-68
2023/12/18 14:05:55;;;;;;;;;;;8.50;99.90;;;;;;4937952;28;20284;-68
2023/12/18 14:08:23;;;;;;;;;;;8.40;99.90;;;;;;4937225;28;19928;-68
2023/12/18 14:10:50;;;;;;;;;;;8.50;99.90;;;;;;4937263;28;20009;-68
2023/12/18 14:13:18;;;;;;;;;;;8.40;99.90;;;;;;4935975;28;19945;-68
2023/12/18 14:15:44;;;;;;;;;;;8.50;99.90;;;;;;4937214;28;19929;-68
2023/12/18 14:18:10;;;;;;;;;;;8.50;99.90;;;;;;4937894;28;19918;-68
2023/12/18 14:20:36;;;;;;;;;;;8.50;99.90;;;;;;4937076;28;20664;-68
2023/12/18 14:23:01;;;;;;;;;;;8.50;99.90;;;;;;4939024;28;19922;-68
2023/12/18 14:25:27;;;;;;;;;;;8.40;99.90;;;;;;4937917;28;19933;-68
2023/12/18 14:27:52;;;;;;;;;;;8.40;99.90;;;;;;4936463;28;21029;-68